Time;durP1;ratioP1;P1;durP2;ratioP2;P2;SDS_P1;SDS_P2;PMS_P1;PMS_P2;Temp;Humidity;BMP_temperature;BMP_pressure;BME280_temperature;BME280_humidity;BME280_pressure;Samples;Min_cycle;Max_cycle;Signal;HPM_P1;HPM_P2
2021/06/24 00:00:59;;;;;;;4.60;4.22;;;10.70;99.90;;;;;;5030831;28;20076;-69
2021/06/24 00:03:27;;;;;;;6.00;3.97;;;10.70;99.90;;;;;;5031143;28;20041;-69
2021/06/24 00:05:54;;;;;;;4.57;4.00;;;10.70;99.90;;;;;;5031609;28;20060;-69
2021/06/24 00:08:20;;;;;;;4.28;3.95;;;10.60;99.90;;;;;;5031383;28;20052;-69
2021/06/24 00:10:46;;;;;;;4.53;3.83;;;10.50;99.90;;;;;;5039201;28;20029;-69
2021/06/24 00:13:13;;;;;;;4.72;4.10;;;10.50;99.90;;;;;;5051630;28;20032;-69
2021/06/24 00:15:39;;;;;;;5.07;4.57;;;10.50;99.90;;;;;;5032190;28;20494;-70
2021/06/24 00:18:06;;;;;;;6.07;4.28;;;10.50;99.90;;;;;;5013708;28;20053;-69
2021/06/24 00:20:32;;;;;;;4.13;3.83;;;10.40;99.90;;;;;;5025550;28;20091;-69
2021/06/24 00:22:58;;;;;;;5.72;4.20;;;10.40;99.90;;;;;;5030099;28;20049;-69
2021/06/24 00:25:24;;;;;;;5.93;4.07;;;10.40;99.90;;;;;;5029801;28;20506;-70
2021/06/24 00:27:50;;;;;;;6.28;4.32;;;10.40;99.90;;;;;;5031112;28;20048;-69
2021/06/24 00:30:16;;;;;;;4.38;3.95;;;10.40;99.90;;;;;;5030884;28;20491;-69
2021/06/24 00:32:42;;;;;;;7.22;4.45;;;10.40;99.90;;;;;;5030939;28;20038;-69
2021/06/24 00:35:08;;;;;;;4.90;4.35;;;10.30;99.90;;;;;;5029061;28;20038;-69
2021/06/24 00:37:35;;;;;;;4.60;4.20;;;10.30;99.90;;;;;;5030636;28;20092;-69
2021/06/24 00:40:03;;;;;;;5.20;4.25;;;10.30;99.90;;;;;;5030704;28;20041;-69
2021/06/24 00:42:33;;;;;;;5.80;4.93;;;10.30;99.90;;;;;;5028003;28;20073;-69
2021/06/24 00:44:59;;;;;;;5.32;4.78;;;10.30;99.90;;;;;;5029874;28;20041;-69
2021/06/24 00:47:24;;;;;;;5.45;5.03;;;10.30;99.90;;;;;;5030347;28;20145;-69
2021/06/24 00:49:50;;;;;;;5.63;4.60;;;10.30;99.90;;;;;;5030779;28;20038;-69
2021/06/24 00:52:16;;;;;;;5.10;4.70;;;10.30;99.90;;;;;;5031022;28;20044;-69
2021/06/24 00:54:47;;;;;;;6.65;5.50;;;10.30;99.90;;;;;;5045195;28;20494;-69
2021/06/24 00:57:13;;;;;;;6.10;5.15;;;10.40;99.90;;;;;;5030816;28;20073;-69
2021/06/24 00:59:39;;;;;;;6.15;5.00;;;10.50;99.90;;;;;;5030368;28;20042;-69
2021/06/24 01:02:05;;;;;;;6.63;5.20;;;10.50;99.90;;;;;;5034910;28;20459;-69
2021/06/24 01:04:32;;;;;;;5.60;5.15;;;10.60;99.90;;;;;;5032741;28;20029;-69
2021/06/24 01:06:58;;;;;;;7.40;4.85;;;10.60;99.90;;;;;;5034244;28;20048;-69
2021/06/24 01:09:24;;;;;;;5.72;4.72;;;10.70;99.90;;;;;;5034024;28;20041;-70
2021/06/24 01:11:50;;;;;;;5.40;4.50;;;10.80;99.90;;;;;;5033693;28;20041;-69
2021/06/24 01:14:16;;;;;;;6.57;4.82;;;10.90;99.90;;;;;;5033931;28;20356;-69
2021/06/24 01:16:42;;;;;;;5.50;5.03;;;10.90;99.90;;;;;;5032449;28;20037;-69
2021/06/24 01:19:12;;;;;;;5.40;4.90;;;10.90;99.90;;;;;;5033010;28;20049;-69
2021/06/24 01:21:38;;;;;;;5.70;5.10;;;11.00;99.90;;;;;;5033002;28;20582;-70
2021/06/24 01:24:04;;;;;;;8.77;5.20;;;11.10;99.90;;;;;;5044632;28;20037;-69
2021/06/24 01:26:30;;;;;;;5.88;5.30;;;11.10;99.90;;;;;;5054539;28;20076;-69
2021/06/24 01:28:56;;;;;;;7.65;5.72;;;10.90;99.90;;;;;;5042434;28;20485;-69
2021/06/24 01:31:22;;;;;;;7.88;5.03;;;10.90;99.90;;;;;;5033367;28;20033;-69
2021/06/24 01:33:49;;;;;;;5.15;4.65;;;11.00;99.90;;;;;;5034048;28;20056;-69
2021/06/24 01:36:15;;;;;;;5.65;5.22;;;11.00;99.90;;;;;;5032779;28;20059;-69
2021/06/24 01:38:44;;;;;;;6.18;5.57;;;11.10;99.90;;;;;;5013818;28;20089;-70
2021/06/24 01:41:12;;;;;;;6.13;5.53;;;11.10;99.90;;;;;;5027857;28;20064;-70
2021/06/24 01:43:37;;;;;;;5.82;5.32;;;11.30;99.90;;;;;;5034061;28;20490;-70
2021/06/24 01:46:03;;;;;;;6.75;5.90;;;11.30;99.90;;;;;;5034148;28;20041;-69
2021/06/24 01:48:29;;;;;;;5.20;4.70;;;11.30;99.90;;;;;;5033515;28;20041;-70
2021/06/24 01:50:58;;;;;;;4.60;4.22;;;11.40;99.90;;;;;;5028089;28;20030;-70
2021/06/24 01:53:25;;;;;;;4.45;4.10;;;11.40;99.90;;;;;;5014174;28;20038;-70
2021/06/24 01:55:52;;;;;;;4.38;4.07;;;11.50;99.90;;;;;;5041789;28;20038;-70
2021/06/24 01:58:23;;;;;;;4.38;3.97;;;11.50;99.90;;;;;;5033766;28;20037;-70
2021/06/24 02:00:51;;;;;;;4.73;4.33;;;11.50;99.90;;;;;;5033248;28;20069;-70
2021/06/24 02:03:17;;;;;;;4.65;4.20;;;11.50;99.90;;;;;;5033951;28;20693;-70
2021/06/24 02:05:44;;;;;;;4.88;3.92;;;11.50;99.90;;;;;;5033074;28;20041;-70
2021/06/24 02:08:21;;;;;;;5.43;4.38;;;11.50;99.90;;;;;;5033858;28;20048;-69
2021/06/24 02:10:48;;;;;;;4.55;4.13;;;11.40;99.90;;;;;;5029957;28;20094;-70
2021/06/24 02:13:13;;;;;;;4.25;3.80;;;11.40;99.90;;;;;;5033554;28;20041;-69
2021/06/24 02:15:40;;;;;;;4.45;4.15;;;11.30;99.90;;;;;;5049053;28;20149;-70
2021/06/24 02:18:06;;;;;;;5.20;4.00;;;11.30;99.90;;;;;;5033444;28;20091;-70
2021/06/24 02:20:33;;;;;;;4.22;3.85;;;11.30;99.90;;;;;;5032125;28;20459;-70
2021/06/24 02:22:58;;;;;;;4.35;4.00;;;11.30;99.90;;;;;;5036594;28;20037;-70
2021/06/24 02:25:26;;;;;;;4.47;3.90;;;11.20;99.90;;;;;;5037282;28;20434;-70
2021/06/24 02:27:52;;;;;;;4.38;4.07;;;11.20;99.90;;;;;;5033424;28;20061;-70
2021/06/24 02:30:18;;;;;;;4.35;3.92;;;11.20;99.90;;;;;;5031367;28;20040;-70
2021/06/24 02:32:44;;;;;;;4.32;3.88;;;11.10;99.90;;;;;;5033568;28;20037;-70
2021/06/24 02:35:12;;;;;;;4.07;3.75;;;11.10;99.90;;;;;;5033119;28;20037;-70
2021/06/24 02:37:39;;;;;;;5.57;3.90;;;11.00;99.90;;;;;;5032474;28;20088;-70
2021/06/24 02:40:07;;;;;;;4.55;4.07;;;11.00;99.90;;;;;;5032875;28;20049;-69
2021/06/24 02:42:33;;;;;;;4.65;4.15;;;10.90;99.90;;;;;;5013749;28;20538;-69
2021/06/24 02:44:58;;;;;;;4.43;3.92;;;10.90;99.90;;;;;;5018561;28;20049;-69
2021/06/24 02:47:24;;;;;;;4.72;4.32;;;10.80;99.90;;;;;;5031835;28;20467;-69
2021/06/24 02:49:50;;;;;;;5.47;4.03;;;10.80;99.90;;;;;;5032746;28;20087;-69
2021/06/24 02:52:15;;;;;;;4.18;3.83;;;10.80;99.90;;;;;;5033203;28;20048;-69
2021/06/24 02:54:41;;;;;;;4.53;4.13;;;10.80;99.90;;;;;;5032648;28;20076;-69
2021/06/24 02:57:07;;;;;;;6.32;4.30;;;10.80;99.90;;;;;;5032723;28;20575;-69
2021/06/24 02:59:33;;;;;;;4.50;4.00;;;10.80;99.90;;;;;;5032961;28;20037;-69
2021/06/24 03:01:58;;;;;;;4.60;4.20;;;10.70;99.90;;;;;;5032071;28;20033;-69
2021/06/24 03:04:24;;;;;;;4.63;4.22;;;10.70;99.90;;;;;;5013239;28;20492;-69
2021/06/24 03:06:51;;;;;;;5.38;4.85;;;10.70;99.90;;;;;;5032860;28;20116;-69
2021/06/24 03:09:17;;;;;;;5.07;4.68;;;10.70;99.90;;;;;;5032499;28;20098;-70
2021/06/24 03:11:43;;;;;;;5.60;5.18;;;10.70;99.90;;;;;;5031950;28;20367;-69
2021/06/24 03:14:09;;;;;;;5.70;5.20;;;10.60;99.90;;;;;;5032390;28;20041;-70
2021/06/24 03:16:35;;;;;;;5.30;4.82;;;10.70;99.90;;;;;;5031970;28;20049;-69
2021/06/24 03:19:00;;;;;;;5.32;4.88;;;10.70;99.90;;;;;;5023508;28;20364;-69
2021/06/24 03:21:26;;;;;;;5.07;4.60;;;10.70;99.90;;;;;;5039975;28;20073;-70
2021/06/24 03:23:52;;;;;;;6.03;4.82;;;10.80;99.90;;;;;;5031522;28;20040;-70
2021/06/24 03:26:19;;;;;;;5.40;4.78;;;10.80;99.90;;;;;;5042719;28;20049;-70
2021/06/24 03:28:44;;;;;;;5.28;4.57;;;10.80;99.90;;;;;;5047535;28;20116;-69
2021/06/24 03:31:11;;;;;;;6.20;5.70;;;10.90;99.90;;;;;;5031780;28;20403;-70
2021/06/24 03:33:37;;;;;;;5.55;4.68;;;10.90;99.90;;;;;;5031930;28;20099;-69
2021/06/24 03:36:03;;;;;;;5.65;5.10;;;10.80;99.90;;;;;;5045441;28;20047;-70
2021/06/24 03:38:29;;;;;;;6.13;4.90;;;10.70;99.90;;;;;;5030819;28;20128;-69
2021/06/24 03:40:55;;;;;;;5.35;4.93;;;10.70;99.90;;;;;;5031833;28;20132;-70
2021/06/24 03:43:21;;;;;;;6.00;5.50;;;10.90;99.90;;;;;;5031480;28;20094;-69
2021/06/24 03:45:47;;;;;;;5.60;5.10;;;11.00;99.90;;;;;;5032044;28;20390;-69
2021/06/24 03:48:13;;;;;;;5.90;5.35;;;11.00;99.90;;;;;;5031522;28;20103;-70
2021/06/24 03:50:38;;;;;;;5.97;5.47;;;11.10;99.90;;;;;;5030741;28;20037;-69
2021/06/24 03:53:04;;;;;;;9.45;6.47;;;11.20;99.90;;;;;;5030177;28;20060;-72
2021/06/24 03:55:37;;;;;;;6.97;6.38;;;11.30;99.90;;;;;;5030935;28;20037;-70
2021/06/24 03:58:06;;;;;;;8.05;6.68;;;11.30;99.90;;;;;;5011750;28;20060;-69
2021/06/24 04:00:34;;;;;;;7.85;7.15;;;11.30;99.90;;;;;;5024384;28;20041;-70
2021/06/24 04:03:00;;;;;;;7.97;7.20;;;11.30;99.90;;;;;;5031095;28;20060;-70
2021/06/24 04:05:29;;;;;;;7.70;6.90;;;11.40;99.90;;;;;;5030558;28;20471;-69
2021/06/24 04:07:55;;;;;;;8.98;7.40;;;11.40;99.90;;;;;;5029374;28;20041;-69
2021/06/24 04:10:21;;;;;;;7.30;6.70;;;11.40;99.90;;;;;;5018393;28;20127;-70
2021/06/24 04:12:46;;;;;;;7.20;6.60;;;11.40;99.90;;;;;;5031013;28;20496;-69
2021/06/24 04:15:13;;;;;;;7.30;6.63;;;11.40;99.90;;;;;;5031390;28;20422;-70
2021/06/24 04:17:38;;;;;;;8.02;7.20;;;11.40;99.90;;;;;;5031187;28;20033;-69
2021/06/24 04:20:05;;;;;;;7.80;7.22;;;11.50;99.90;;;;;;5030728;28;20045;-70
2021/06/24 04:22:31;;;;;;;7.07;6.47;;;11.50;99.90;;;;;;5030723;28;20044;-70
2021/06/24 04:24:57;;;;;;;8.90;7.35;;;11.50;99.90;;;;;;5029166;28;20069;-71
2021/06/24 04:27:23;;;;;;;7.90;7.20;;;11.50;99.90;;;;;;5034399;28;20549;-69
2021/06/24 04:29:49;;;;;;;9.80;7.25;;;11.60;99.90;;;;;;5030759;28;20045;-69
2021/06/24 04:32:14;;;;;;;16.05;7.25;;;11.60;99.90;;;;;;5044479;28;20034;-69
2021/06/24 04:34:41;;;;;;;10.43;7.80;;;11.60;99.90;;;;;;5028365;28;20068;-69
2021/06/24 04:37:06;;;;;;;9.60;8.60;;;11.70;99.90;;;;;;5028738;28;20103;-70
2021/06/24 04:39:32;;;;;;;8.63;7.72;;;11.80;99.90;;;;;;5030687;28;20072;-71
2021/06/24 04:41:58;;;;;;;9.07;8.27;;;11.80;99.90;;;;;;5029071;28;20045;-69
2021/06/24 04:44:23;;;;;;;10.98;8.43;;;11.90;99.90;;;;;;5030532;28;20139;-69
2021/06/24 04:46:49;;;;;;;8.32;7.53;;;12.00;99.90;;;;;;5020919;28;20549;-69
2021/06/24 04:49:16;;;;;;;9.50;8.52;;;12.10;99.90;;;;;;5024458;28;20038;-69
2021/06/24 04:51:43;;;;;;;8.45;7.75;;;12.10;99.90;;;;;;5030234;28;20495;-70
2021/06/24 04:54:09;;;;;;;9.90;8.23;;;12.20;99.90;;;;;;5029531;28;20045;-71
2021/06/24 04:56:35;;;;;;;9.18;8.27;;;12.20;99.90;;;;;;5030135;28;20072;-69
2021/06/24 04:59:00;;;;;;;9.13;8.18;;;12.30;99.90;;;;;;5030448;28;20033;-71
2021/06/24 05:01:26;;;;;;;8.82;7.93;;;12.40;99.90;;;;;;5030233;28;20042;-70
2021/06/24 05:03:52;;;;;;;9.00;7.47;;;12.50;99.90;;;;;;5030472;28;20037;-70
2021/06/24 05:06:18;;;;;;;7.63;6.93;;;12.50;99.90;;;;;;5028900;28;20096;-69
2021/06/24 05:08:44;;;;;;;8.00;7.00;;;12.70;99.90;;;;;;5029705;28;20075;-69
2021/06/24 05:11:10;;;;;;;7.13;6.53;;;12.90;99.90;;;;;;5030336;28;20389;-69
2021/06/24 05:13:35;;;;;;;6.95;6.22;;;13.00;99.90;;;;;;5030624;28;20071;-70
2021/06/24 05:16:05;;;;;;;7.47;6.80;;;13.20;99.90;;;;;;5030426;28;20029;-70
2021/06/24 05:18:31;;;;;;;6.35;5.82;;;13.30;99.90;;;;;;5030903;28;20064;-70
2021/06/24 05:20:59;;;;;;;7.63;5.78;;;13.40;99.90;;;;;;5045948;28;20392;-70
2021/06/24 05:23:25;;;;;;;8.82;5.57;;;13.50;99.90;;;;;;5042863;28;20065;-70
2021/06/24 05:25:50;;;;;;;6.15;5.55;;;13.60;99.90;;;;;;5026428;28;20080;-70
2021/06/24 05:28:17;;;;;;;5.63;5.13;;;13.80;99.90;;;;;;5035803;28;20538;-70
2021/06/24 05:30:44;;;;;;;7.25;5.32;;;14.00;99.90;;;;;;5030225;28;20049;-70
2021/06/24 05:33:10;;;;;;;7.75;5.53;;;14.10;99.90;;;;;;5046048;28;20043;-70
2021/06/24 05:35:36;;;;;;;5.35;4.90;;;14.20;99.90;;;;;;5031490;28;20085;-70
2021/06/24 05:38:02;;;;;;;6.25;4.93;;;14.20;99.90;;;;;;5030388;28;20037;-70
2021/06/24 05:40:28;;;;;;;5.72;5.07;;;14.30;99.90;;;;;;5058095;23;20059;-69
2021/06/24 05:42:54;;;;;;;5.32;4.82;;;14.50;99.90;;;;;;5066935;28;20045;-69
2021/06/24 05:45:26;;;;;;;5.60;5.10;;;14.60;99.90;;;;;;5051691;28;20044;-69
2021/06/24 05:47:52;;;;;;;6.65;5.22;;;14.80;99.90;;;;;;5060334;28;20025;-69
2021/06/24 05:50:18;;;;;;;4.95;4.45;;;15.40;99.90;;;;;;5080618;28;20115;-69
2021/06/24 05:52:43;;;;;;;5.25;3.85;;;16.90;99.90;;;;;;5054656;28;20040;-69
2021/06/24 05:55:09;;;;;;;5.65;4.00;;;18.20;99.80;;;;;;5061688;28;20486;-69
2021/06/24 05:57:35;;;;;;;4.10;3.70;;;17.80;96.50;;;;;;5059237;28;20111;-70
2021/06/24 06:00:01;;;;;;;5.60;3.38;;;18.40;96.90;;;;;;5060632;28;20045;-69
2021/06/24 06:02:26;;;;;;;3.88;3.03;;;19.30;95.80;;;;;;5070682;28;20118;-69
2021/06/24 06:04:52;;;;;;;3.92;2.97;;;20.40;95.80;;;;;;5073443;28;20048;-70
2021/06/24 06:07:17;;;;;;;5.13;3.13;;;20.10;91.90;;;;;;5073344;28;20438;-67
2021/06/24 06:09:43;;;;;;;5.47;3.17;;;21.20;92.60;;;;;;5053436;28;20726;-67
2021/06/24 06:12:09;;;;;;;4.88;3.42;;;21.70;87.50;;;;;;5071143;28;20527;-67
2021/06/24 06:14:35;;;;;;;3.38;3.08;;;21.90;86.80;;;;;;5054505;28;20672;-69
2021/06/24 06:17:01;;;;;;;3.60;3.30;;;21.40;85.80;;;;;;5071620;28;20049;-69
2021/06/24 06:19:26;;;;;;;5.95;3.88;;;20.20;89.50;;;;;;5071165;28;20072;-69
2021/06/24 06:21:52;;;;;;;4.25;3.75;;;19.60;91.30;;;;;;5073131;28;20469;-69
2021/06/24 06:24:17;;;;;;;4.38;3.35;;;19.40;92.40;;;;;;5073178;28;20036;-69
2021/06/24 06:26:43;;;;;;;5.15;3.75;;;21.00;91.50;;;;;;5047908;28;20040;-71
2021/06/24 06:29:09;;;;;;;4.65;3.47;;;20.30;88.20;;;;;;5059541;28;20094;-69
2021/06/24 06:31:37;;;;;;;5.05;3.72;;;21.80;90.00;;;;;;5071322;28;20036;-69
2021/06/24 06:34:02;;;;;;;4.05;3.63;;;21.80;86.20;;;;;;5067507;28;20068;-69
2021/06/24 06:36:28;;;;;;;4.57;3.67;;;21.00;85.60;;;;;;5065252;28;20078;-69
2021/06/24 06:38:54;;;;;;;3.03;2.80;;;19.50;89.40;;;;;;5066519;28;20033;-70
2021/06/24 06:41:20;;;;;;;5.03;3.33;;;19.90;90.00;;;;;;5048504;28;20146;-69
2021/06/24 06:43:45;;;;;;;4.13;2.90;;;20.30;90.40;;;;;;5052333;28;20118;-69
2021/06/24 06:46:11;;;;;;;4.28;2.88;;;19.80;91.10;;;;;;5068822;28;20442;-69
2021/06/24 06:48:37;;;;;;;4.00;2.63;;;19.60;90.60;;;;;;5051958;28;20148;-68
2021/06/24 06:51:03;;;;;;;3.20;2.90;;;20.40;90.40;;;;;;5063365;28;20548;-69
2021/06/24 06:53:29;;;;;;;3.72;2.90;;;21.00;90.50;;;;;;5054585;28;20032;-69
2021/06/24 06:55:55;;;;;;;4.70;3.22;;;21.00;90.40;;;;;;5068853;28;20039;-71
2021/06/24 06:58:21;;;;;;;4.50;3.05;;;19.70;86.80;;;;;;5069887;28;20421;-68
2021/06/24 07:00:46;;;;;;;4.18;2.80;;;20.50;90.00;;;;;;5072100;28;20075;-68
2021/06/24 07:03:12;;;;;;;3.10;2.30;;;21.30;88.10;;;;;;5070304;28;20036;-68
2021/06/24 07:05:37;;;;;;;2.72;2.13;;;22.10;83.60;;;;;;5053616;28;20115;-66
2021/06/24 07:08:04;;;;;;;3.35;2.45;;;22.20;81.70;;;;;;5068797;28;20040;-68
2021/06/24 07:10:29;;;;;;;5.15;2.60;;;21.70;83.40;;;;;;5066029;28;20047;-68
2021/06/24 07:12:55;;;;;;;2.47;2.00;;;20.50;86.60;;;;;;5049649;28;20040;-68
2021/06/24 07:15:21;;;;;;;4.95;2.55;;;19.90;90.10;;;;;;5049920;28;20060;-68
2021/06/24 07:17:47;;;;;;;4.10;2.40;;;19.60;91.20;;;;;;5071757;28;20048;-67
2021/06/24 07:20:13;;;;;;;2.63;2.42;;;19.20;90.90;;;;;;5049451;28;20041;-68
2021/06/24 07:22:39;;;;;;;6.13;2.30;;;18.60;92.00;;;;;;5051810;28;20064;-68
2021/06/24 07:25:07;;;;;;;3.63;2.35;;;18.30;91.30;;;;;;5064092;28;20083;-68
2021/06/24 07:27:32;;;;;;;3.85;2.50;;;18.20;92.80;;;;;;5071222;28;20462;-68
2021/06/24 07:29:58;;;;;;;4.07;2.50;;;19.50;91.60;;;;;;5058955;28;20045;-68
2021/06/24 07:32:24;;;;;;;4.70;2.33;;;20.40;90.40;;;;;;5052572;28;20383;-69
2021/06/24 07:34:50;;;;;;;3.70;2.45;;;21.00;89.00;;;;;;5052979;28;20036;-68
2021/06/24 07:37:16;;;;;;;2.67;2.00;;;21.90;86.90;;;;;;5071030;28;20043;-68
2021/06/24 07:39:41;;;;;;;2.97;2.25;;;21.60;87.60;;;;;;5052434;28;20045;-69
2021/06/24 07:42:07;;;;;;;3.58;2.10;;;21.30;86.40;;;;;;5070734;28;20501;-69
2021/06/24 07:44:33;;;;;;;2.35;2.15;;;20.50;88.50;;;;;;5070349;28;20401;-69
2021/06/24 07:46:59;;;;;;;2.80;2.25;;;20.20;90.70;;;;;;5062482;28;20063;-69
2021/06/24 07:49:25;;;;;;;3.53;1.98;;;19.40;90.10;;;;;;5053185;28;20054;-69
2021/06/24 07:51:50;;;;;;;2.40;1.70;;;19.30;91.00;;;;;;5068340;28;20617;-68
2021/06/24 07:54:16;;;;;;;2.08;1.63;;;19.20;90.90;;;;;;5053271;28;20428;-69
2021/06/24 07:56:41;;;;;;;2.42;1.38;;;19.10;91.90;;;;;;5071308;28;20040;-69
2021/06/24 07:59:11;;;;;;;2.47;1.80;;;19.00;92.30;;;;;;5070489;28;20040;-69
2021/06/24 08:01:37;;;;;;;3.58;2.20;;;18.80;92.20;;;;;;5055979;28;20081;-69
2021/06/24 08:04:06;;;;;;;3.55;2.00;;;18.70;92.50;;;;;;5054001;28;20126;-69
2021/06/24 08:06:32;;;;;;;4.65;2.63;;;18.70;92.50;;;;;;5071867;28;20040;-71
2021/06/24 08:08:57;;;;;;;3.08;2.75;;;18.70;92.70;;;;;;5071775;28;20409;-70
2021/06/24 08:11:23;;;;;;;3.58;2.30;;;18.60;93.00;;;;;;5070561;28;20488;-69
2021/06/24 08:13:49;;;;;;;2.53;2.30;;;18.60;92.90;;;;;;5052580;28;20569;-69
2021/06/24 08:16:16;;;;;;;3.95;2.60;;;18.00;92.20;;;;;;5053440;28;20048;-69
2021/06/24 08:18:42;;;;;;;4.53;2.45;;;18.00;92.60;;;;;;5075914;28;20478;-69
2021/06/24 08:21:08;;;;;;;5.03;2.30;;;18.30;93.30;;;;;;5071586;28;20036;-69
2021/06/24 08:23:35;;;;;;;6.68;2.45;;;18.50;93.00;;;;;;5071465;28;20040;-69
2021/06/24 08:26:00;;;;;;;4.45;2.20;;;18.50;92.80;;;;;;5070961;28;20040;-69
2021/06/24 08:28:26;;;;;;;3.50;1.95;;;18.50;93.50;;;;;;5060116;28;20059;-68
2021/06/24 08:30:54;;;;;;;2.33;2.03;;;18.80;93.20;;;;;;5070820;28;20070;-68
2021/06/24 08:33:20;;;;;;;3.35;1.95;;;18.50;92.70;;;;;;5071744;28;20064;-68
2021/06/24 08:35:46;;;;;;;2.35;2.00;;;18.50;92.50;;;;;;5053652;28;20064;-69
2021/06/24 08:38:12;;;;;;;3.35;2.10;;;18.50;91.60;;;;;;5052821;28;20036;-69
2021/06/24 08:40:39;;;;;;;2.20;2.00;;;18.30;92.50;;;;;;5065580;28;21394;-69
2021/06/24 08:43:06;;;;;;;1.95;1.75;;;18.70;92.90;;;;;;5062370;28;20063;-69
2021/06/24 08:45:32;;;;;;;2.00;1.63;;;18.50;91.80;;;;;;5045810;28;20040;-69
2021/06/24 08:47:59;;;;;;;1.88;1.48;;;19.00;91.70;;;;;;5056039;28;20040;-69
2021/06/24 08:50:25;;;;;;;2.53;1.60;;;19.60;91.10;;;;;;5035594;28;20099;-70
2021/06/24 08:52:51;;;;;;;2.15;1.70;;;19.20;91.10;;;;;;5060459;28;20032;-70
2021/06/24 08:55:18;;;;;;;2.22;1.58;;;19.50;91.00;;;;;;5069028;28;20067;-69
2021/06/24 08:57:44;;;;;;;1.88;1.75;;;19.30;91.40;;;;;;5063807;28;20367;-69
2021/06/24 09:00:11;;;;;;;2.70;2.00;;;18.70;92.20;;;;;;5064561;28;20684;-69
2021/06/24 09:02:37;;;;;;;4.38;1.90;;;18.40;91.90;;;;;;5052990;28;20032;-69
2021/06/24 09:05:03;;;;;;;4.10;2.00;;;18.10;93.40;;;;;;5052476;28;20044;-69
2021/06/24 09:07:29;;;;;;;3.35;1.83;;;18.00;93.90;;;;;;5042449;28;20044;-69
2021/06/24 09:09:58;;;;;;;2.13;1.80;;;17.90;94.00;;;;;;5056641;28;20041;-68
2021/06/24 09:12:25;;;;;;;3.95;2.10;;;17.90;94.60;;;;;;5048165;28;20043;-68
2021/06/24 09:15:00;;;;;;;3.03;2.13;;;17.90;94.60;;;;;;5040169;28;20076;-68
2021/06/24 09:17:38;;;;;;;1.83;1.60;;;18.10;94.10;;;;;;5052327;28;20041;-68
2021/06/24 09:20:26;;;;;;;2.90;1.92;;;18.30;93.90;;;;;;5070655;28;20087;-68
2021/06/24 09:23:03;;;;;;;2.50;1.80;;;18.30;94.40;;;;;;5055035;28;20041;-67
2021/06/24 09:25:29;;;;;;;2.40;1.40;;;18.30;93.50;;;;;;5045106;28;20483;-69
2021/06/24 09:27:55;;;;;;;3.55;2.28;;;18.30;93.80;;;;;;5068298;28;20065;-69
2021/06/24 09:30:29;;;;;;;2.50;2.13;;;18.20;92.70;;;;;;5071508;28;20029;-69
2021/06/24 09:32:56;;;;;;;6.40;2.40;;;18.20;93.90;;;;;;5068405;28;20098;-69
2021/06/24 09:35:28;;;;;;;4.95;2.08;;;17.90;93.30;;;;;;5074426;28;20378;-69
2021/06/24 09:38:20;;;;;;;3.67;1.80;;;18.20;93.40;;;;;;5075003;28;20448;-69
2021/06/24 09:40:49;;;;;;;5.03;2.25;;;18.30;93.60;;;;;;5069527;28;20053;-68
2021/06/24 09:43:31;;;;;;;4.15;2.30;;;18.10;94.10;;;;;;5073425;28;20036;-68
2021/06/24 09:48:43;;;;;;;2.60;2.33;;;18.50;94.20;;;;;;5073353;28;20048;-69
2021/06/24 09:51:15;;;;;;;3.67;2.53;;;18.60;94.00;;;;;;5069004;28;20047;-69
2021/06/24 09:54:00;;;;;;;;;;;18.80;93.90;;;;;;5069391;28;20091;-70
2021/06/24 09:56:31;;;;;;;4.03;2.42;;;18.70;93.20;;;;;;5066908;28;19917;-69
2021/06/24 09:59:03;;;;;;;4.82;2.83;;;18.90;92.80;;;;;;5065250;28;20052;-69
2021/06/24 10:01:37;;;;;;;2.90;2.53;;;18.70;93.70;;;;;;5068921;28;20066;-69
2021/06/24 10:04:06;;;;;;;4.90;3.17;;;19.10;93.10;;;;;;5071503;28;20075;-69
2021/06/24 10:06:31;;;;;;;4.03;2.70;;;18.80;93.60;;;;;;5069085;28;20089;-69
2021/06/24 10:08:58;;;;;;;2.92;2.63;;;18.90;93.80;;;;;;5042686;28;20037;-69
2021/06/24 10:11:25;;;;;;;3.25;2.90;;;19.30;93.10;;;;;;5051660;28;20040;-71
2021/06/24 10:13:51;;;;;;;3.33;2.65;;;19.50;93.10;;;;;;5061926;28;20068;-70
2021/06/24 10:16:18;;;;;;;3.78;2.90;;;19.70;92.10;;;;;;5063205;28;20429;-70
2021/06/24 10:18:46;;;;;;;3.47;3.17;;;19.30;92.20;;;;;;5065228;28;20049;-69
2021/06/24 10:21:14;;;;;;;4.80;3.08;;;18.90;92.40;;;;;;5062956;28;20489;-69
2021/06/24 10:23:46;;;;;;;4.07;3.67;;;18.50;93.40;;;;;;5054094;28;20524;-69
2021/06/24 10:26:13;;;;;;;5.40;3.40;;;17.90;93.90;;;;;;5072910;28;20032;-69
2021/06/24 10:28:39;;;;;;;5.15;4.20;;;18.00;94.50;;;;;;5068334;28;20071;-69
2021/06/24 10:31:04;;;;;;;4.95;3.45;;;17.90;94.00;;;;;;5071405;28;20068;-70
2021/06/24 10:33:55;;;;;;;4.20;2.75;;;17.90;94.60;;;;;;5070425;28;20409;-70
2021/06/24 10:36:21;;;;;;;3.65;3.35;;;18.30;94.20;;;;;;5071832;28;20119;-70
2021/06/24 10:38:51;;;;;;;3.85;3.25;;;18.50;93.50;;;;;;5072412;28;20436;-71
2021/06/24 10:41:17;;;;;;;4.32;3.60;;;18.30;94.30;;;;;;5054560;28;20049;-72
2021/06/24 10:43:48;;;;;;;4.10;3.40;;;18.40;94.30;;;;;;5052460;28;20040;-72
2021/06/24 10:46:20;;;;;;;3.15;2.90;;;18.60;94.20;;;;;;5063315;28;20533;-70
2021/06/24 10:48:46;;;;;;;3.60;3.30;;;18.70;93.80;;;;;;5053066;28;20052;-68
2021/06/24 10:51:14;;;;;;;3.72;3.42;;;18.70;93.60;;;;;;5052706;28;20041;-69
2021/06/24 10:53:52;;;;;;;3.47;3.25;;;18.60;93.90;;;;;;5060254;28;20040;-70
2021/06/24 10:56:30;;;;;;;3.42;3.13;;;18.90;93.50;;;;;;5035738;28;20041;-70
2021/06/24 10:58:57;;;;;;;3.30;3.00;;;19.00;92.80;;;;;;5062812;28;20050;-70
2021/06/24 11:01:43;;;;;;;3.95;3.45;;;19.20;93.20;;;;;;5070018;28;20081;-70
2021/06/24 11:04:25;;;;;;;4.35;3.45;;;19.10;92.50;;;;;;5051454;28;20044;-70
2021/06/24 11:06:53;;;;;;;3.97;3.63;;;19.00;92.90;;;;;;5052391;28;20119;-70
2021/06/24 11:09:20;;;;;;;5.05;3.40;;;18.80;93.10;;;;;;5043631;28;20045;-70
2021/06/24 11:11:46;;;;;;;3.75;2.95;;;19.00;92.10;;;;;;5045092;28;20087;-70
2021/06/24 11:14:16;;;;;;;3.20;2.72;;;19.30;92.90;;;;;;5063089;28;20040;-70
2021/06/24 11:16:45;;;;;;;3.40;2.88;;;19.40;92.60;;;;;;5058114;28;20037;-70
2021/06/24 11:19:14;;;;;;;3.05;2.70;;;19.50;92.40;;;;;;5055109;28;20073;-70
2021/06/24 11:21:39;;;;;;;3.65;3.33;;;19.70;92.60;;;;;;5060369;28;20417;-70
2021/06/24 11:24:05;;;;;;;5.85;3.50;;;19.60;92.20;;;;;;5062550;28;20028;-70
2021/06/24 11:26:41;;;;;;;4.82;3.63;;;19.90;91.40;;;;;;5059533;28;20033;-70
2021/06/24 11:29:39;;;;;;;6.43;3.63;;;20.10;91.60;;;;;;5064523;28;20040;-68
2021/06/24 11:32:21;;;;;;;3.20;3.00;;;20.10;90.70;;;;;;5059241;28;20044;-69
2021/06/24 11:34:58;;;;;;;5.05;3.80;;;20.00;92.10;;;;;;5069213;28;20040;-69
2021/06/24 11:37:32;;;;;;;3.60;3.30;;;19.80;91.20;;;;;;5069194;28;20539;-69
2021/06/24 11:39:59;;;;;;;4.50;3.63;;;19.90;92.60;;;;;;5051114;28;20052;-69
2021/06/24 11:42:35;;;;;;;3.30;3.00;;;20.00;92.70;;;;;;5059316;28;20075;-70
2021/06/24 11:45:02;;;;;;;4.30;3.38;;;20.10;92.00;;;;;;5064818;28;20091;-70
2021/06/24 11:47:33;;;;;;;3.78;3.47;;;20.30;91.40;;;;;;5068604;28;20041;-70
2021/06/24 12:03:48;;;;;;;3.78;3.47;;;19.60;92.30;;;;;;5071209;28;20094;-70
2021/06/24 12:06:14;;;;;;;3.97;3.25;;;19.90;92.30;;;;;;5068178;28;20526;-70
2021/06/24 12:08:40;;;;;;;3.42;3.20;;;20.10;92.20;;;;;;5069758;28;20624;-71
2021/06/24 12:11:12;;;;;;;4.30;3.97;;;19.60;91.70;;;;;;5070894;28;20376;-71
2021/06/24 12:13:40;;;;;;;3.80;3.35;;;19.10;92.10;;;;;;5051050;28;20033;-71
2021/06/24 12:16:10;;;;;;;7.03;3.83;;;19.60;92.50;;;;;;5054440;28;20089;-69
2021/06/24 12:18:41;;;;;;;3.38;3.17;;;19.90;92.40;;;;;;5053759;28;20046;-70
2021/06/24 12:21:15;;;;;;;4.85;2.90;;;19.60;91.80;;;;;;5064748;28;20040;-70
2021/06/24 12:23:41;;;;;;;3.42;3.15;;;20.00;92.60;;;;;;5070551;28;20048;-70
2021/06/24 12:26:07;;;;;;;3.30;3.10;;;20.40;91.90;;;;;;5068295;28;20047;-69
2021/06/24 12:28:33;;;;;;;3.25;2.80;;;20.70;91.00;;;;;;5070164;28;20048;-69
2021/06/24 12:30:59;;;;;;;3.60;3.17;;;21.00;89.90;;;;;;5070847;28;20119;-70
2021/06/24 12:33:26;;;;;;;3.47;2.95;;;20.90;90.10;;;;;;5069563;28;20044;-70
2021/06/24 12:35:53;;;;;;;3.45;2.60;;;20.80;90.30;;;;;;5051530;28;20091;-70
2021/06/24 12:38:29;;;;;;;2.70;2.50;;;20.10;90.80;;;;;;5063719;28;20068;-68
2021/06/24 12:41:06;;;;;;;3.30;3.03;;;20.10;90.70;;;;;;5053238;28;20072;-71
2021/06/24 12:43:34;;;;;;;3.00;2.80;;;19.60;91.80;;;;;;5070526;28;20036;-72
2021/06/24 12:46:01;;;;;;;4.43;3.00;;;19.60;92.10;;;;;;5084882;28;20094;-67
2021/06/24 12:48:39;;;;;;;5.32;2.63;;;19.80;92.60;;;;;;5037804;28;20039;-68
2021/06/24 12:51:21;;;;;;;2.85;2.65;;;20.10;92.40;;;;;;5067639;28;20032;-68
2021/06/24 12:53:51;;;;;;;2.70;2.50;;;20.10;91.70;;;;;;5070746;28;20115;-68
2021/06/24 12:56:24;;;;;;;3.25;2.95;;;20.40;91.80;;;;;;5073201;28;20036;-68
2021/06/24 12:58:50;;;;;;;3.40;3.10;;;20.40;91.10;;;;;;5074822;28;20029;-68
2021/06/24 13:01:18;;;;;;;3.67;3.20;;;20.10;91.40;;;;;;5051111;28;20048;-69
2021/06/24 13:03:53;;;;;;;3.00;2.80;;;20.00;90.80;;;;;;5074590;28;20066;-69
2021/06/24 13:06:20;;;;;;;3.65;2.80;;;19.90;92.00;;;;;;5074181;28;20051;-69